Accueil
METAR-TAF:

METAR-TAF

Aéroports :

Stockholm-Arlanda, Suède

Aéroport de Stockholm-Arlanda

latitude: 59-39N, longitude: 017-57E, altitude: 38 m

Observation

Le bulletin a été fait il y a 23 minutes, à 22:20 UTC
Vent 4 kt de ouest/sud-ouest
Température 11°C
Humidité 76%
Pression 1010 hPa
Visibilité 10 km ou plus
pas de nuages en-dessous de 1500 mètres et pas de cumulonimbus.

METAR: ESSA 272220Z 24004KT CAVOK 11/07 Q1010 NOSIG

Heure: 00:43 (22:43 UTC)

Prévision

Le bulletin a été fait il y a 5 heures et 13 minutes, à 17:30 UTC
Prévision valable du 27 à 18 UTC au 28 à 18 UTC
Vent 5 kt de ouest/nord-ouest
Visibilité 10 km ou plus
pas de nuages en-dessous de 1500 mètres et pas de cumulonimbus.

TAF: ESSA 271730Z 2718/2818 29005KT CAVOK

Observations et prévisions météorologiques de plus de 4000 aéroports (messages METAR et TAF).

Les stations disponibles sont représentées par des disques jaunes et rouges sur la carte.

Passer la souris dessus pour voir le nom de la station.

Cliquer dessus pour voir les observations et prévisions météorologiques.

Pour changer de carte: cliquez sur les boutons verts avec une croix noire pour zoomer, sur le bouton vert avec un tiret pour effectuer un zoom arrière, ou sur les flèches vertes pour les cartes adjacentes.


METAR-TAF: